createdAt,value
2019-02-17T00:04:22.000Z,35.1
2019-02-17T00:14:22.000Z,34.9
2019-02-17T00:24:22.000Z,34.6
2019-02-17T00:34:22.000Z,34.5
2019-02-17T00:44:22.000Z,34.3
2019-02-17T00:54:23.000Z,34.4
2019-02-17T01:04:22.000Z,35
2019-02-17T01:14:22.000Z,34.9
2019-02-17T01:24:22.000Z,35.1
2019-02-17T01:34:23.000Z,34.7
2019-02-17T01:44:23.000Z,34.7
2019-02-17T01:54:23.000Z,34.8
2019-02-17T02:04:23.000Z,35.1
2019-02-17T02:14:23.000Z,34.9
2019-02-17T02:24:23.000Z,34.5
2019-02-17T02:34:23.000Z,34.5
2019-02-17T02:44:23.000Z,34.4
2019-02-17T02:54:23.000Z,34.8
2019-02-17T03:04:23.000Z,34.7
2019-02-17T03:14:23.000Z,34.8
2019-02-17T03:24:23.000Z,34.9
2019-02-17T03:34:23.000Z,35.5
2019-02-17T03:44:23.000Z,35
2019-02-17T03:54:23.000Z,35.1
2019-02-17T04:04:23.000Z,35.2
2019-02-17T04:14:23.000Z,35
2019-02-17T04:24:23.000Z,35
2019-02-17T04:34:23.000Z,35
2019-02-17T04:44:23.000Z,35
2019-02-17T04:54:23.000Z,35.1
2019-02-17T05:04:23.000Z,35.2
2019-02-17T05:14:23.000Z,35.8
2019-02-17T05:24:23.000Z,35.2
2019-02-17T05:34:23.000Z,35.3
2019-02-17T05:44:23.000Z,35.3
2019-02-17T05:54:23.000Z,35.5
2019-02-17T06:04:23.000Z,35.2
2019-02-17T06:14:23.000Z,35.1
2019-02-17T06:24:23.000Z,35.3
2019-02-17T06:34:23.000Z,35.5
2019-02-17T06:44:23.000Z,35.3
2019-02-17T06:54:23.000Z,35.3
2019-02-17T07:04:23.000Z,35.3
2019-02-17T07:14:23.000Z,40.7
2019-02-17T07:24:23.000Z,41.2
2019-02-17T07:34:23.000Z,41.9
2019-02-17T07:44:23.000Z,43.8
2019-02-17T07:54:23.000Z,44
2019-02-17T08:04:23.000Z,44.3
2019-02-17T08:14:24.000Z,44.2
2019-02-17T08:24:23.000Z,44.3
2019-02-17T08:34:23.000Z,45.1
2019-02-17T08:44:24.000Z,44.5
2019-02-17T08:54:24.000Z,44.5
2019-02-17T09:04:24.000Z,44.6
2019-02-17T09:14:24.000Z,44.7
2019-02-17T09:24:25.000Z,45
2019-02-17T09:34:24.000Z,45.2
2019-02-17T09:44:24.000Z,45.5
2019-02-17T09:54:24.000Z,45.6
2019-02-17T10:04:24.000Z,45.7
2019-02-17T10:14:24.000Z,45.9
2019-02-17T10:24:24.000Z,45.9
2019-02-17T10:34:24.000Z,46.3
2019-02-17T10:44:24.000Z,45.2
2019-02-17T10:54:24.000Z,45.3
2019-02-17T11:04:24.000Z,46.8
2019-02-17T11:14:24.000Z,47.3
2019-02-17T11:24:24.000Z,47.4
2019-02-17T11:34:24.000Z,48.6
2019-02-17T11:44:24.000Z,48.3
2019-02-17T11:54:24.000Z,49.1
2019-02-17T12:04:24.000Z,49
2019-02-17T12:14:24.000Z,49.3
2019-02-17T12:24:24.000Z,48.9
2019-02-17T12:34:24.000Z,49.1
2019-02-17T12:44:24.000Z,48.1
2019-02-17T12:54:26.000Z,46.4
2019-02-17T13:04:24.000Z,48.6
2019-02-17T13:14:24.000Z,46.8
2019-02-17T13:24:24.000Z,46.4
2019-02-17T13:34:24.000Z,46.2
2019-02-17T13:44:25.000Z,45
2019-02-17T13:54:24.000Z,46.2
2019-02-17T14:04:24.000Z,47.6
2019-02-17T14:14:24.000Z,47.4
2019-02-17T14:24:24.000Z,47.5
2019-02-17T14:34:24.000Z,47.6
2019-02-17T14:44:24.000Z,47.7
2019-02-17T14:54:24.000Z,47.8
2019-02-17T15:04:24.000Z,47.9
2019-02-17T15:14:24.000Z,47.8
2019-02-17T15:24:28.000Z,47.8
2019-02-17T15:34:24.000Z,47.8
2019-02-17T15:44:25.000Z,47.8
2019-02-17T15:54:25.000Z,47.8
2019-02-17T16:04:25.000Z,47.7
2019-02-17T16:14:25.000Z,46.3
2019-02-17T16:24:25.000Z,47.7
2019-02-17T16:34:25.000Z,49.1
2019-02-17T16:44:25.000Z,50.1
2019-02-17T16:54:26.000Z,50.5
2019-02-17T17:04:26.000Z,50.8
2019-02-17T17:14:27.000Z,50.7
2019-02-17T17:24:25.000Z,50.7
2019-02-17T17:34:25.000Z,49.8
2019-02-17T17:44:25.000Z,49.8
2019-02-17T17:54:25.000Z,49.9
2019-02-17T18:04:25.000Z,49.9
2019-02-17T18:14:25.000Z,50
2019-02-17T18:24:25.000Z,50
2019-02-17T18:34:25.000Z,50.1
2019-02-17T18:44:25.000Z,50.3
2019-02-17T18:54:25.000Z,50.4
2019-02-17T19:04:25.000Z,50.4
2019-02-17T19:14:25.000Z,50.8
2019-02-17T19:24:25.000Z,51.7
2019-02-17T19:34:25.000Z,51.4
2019-02-17T19:44:25.000Z,50.3
2019-02-17T19:54:25.000Z,50.3
2019-02-17T20:04:28.000Z,50.7
2019-02-17T20:14:25.000Z,50.7
2019-02-17T20:24:26.000Z,51
2019-02-17T20:34:25.000Z,50.8
2019-02-17T20:44:25.000Z,50.7
2019-02-17T20:54:25.000Z,50.5
2019-02-17T21:04:25.000Z,50.5
2019-02-17T21:14:25.000Z,47.8
2019-02-17T21:24:25.000Z,34.9
2019-02-17T21:34:25.000Z,33.1
2019-02-17T21:44:25.000Z,32.5
2019-02-17T21:54:25.000Z,31.9
2019-02-17T22:04:25.000Z,32
2019-02-17T22:14:25.000Z,32.1
2019-02-17T22:24:25.000Z,32.4
2019-02-17T22:34:30.000Z,32.2
2019-02-17T22:44:30.000Z,32.5
2019-02-17T22:54:26.000Z,32.4
2019-02-17T23:04:26.000Z,32.3
2019-02-17T23:14:26.000Z,32.6
2019-02-17T23:24:26.000Z,32.8
2019-02-17T23:34:26.000Z,32.7
2019-02-17T23:44:26.000Z,32.5
2019-02-17T23:54:26.000Z,32.6
